Airfield :
LOGIN :

Register | Disclaimer

   EN    FR    IT 

 










Legend :    VFR   Marginal VFR   IFR   Intensive IFR   Very Intensive IFR
Visi :
Ceiling :
>= 8 km
>= 3000ft
5 to 8 km
1000 to 3000 ft
1500m to 5 km
500 to 1000 ft
800 to 1500m
200 to 500 ft
< 800m
< 200 ft
Symbols :   Thunderstorms  Fog  Heavy snow  Heavy precipitations  Wind > 20 kt
SIGMETs :     Misc.  Thunderstorms  Icing  Turbulence  Mountain Waves  Volcanic Ashes






- Airport Elevation : 286 ft
- IATA code : FFD


EGVA - RAF Fairford

CURRENT METAR :
  • 280655Z AUTO 02005KT 9999 SCT170 03/03 A2969 RMK AO2 SLPNO T00330032 $

EXPIRED METARs :
  • 280555Z AUTO 20004KT 9999 CLR 03/03 A2968 RMK AO2 VIS 2400 RWY09 SLPNO T00310030 10034 20025 $
  • 280455Z 00000KT 9999 SCT005 03/03 A2969 RMK VIS 4400 RWY09 SLPNO T00270026 10027 20026 $

TAF TAF EGVA
Valid from the 28 at 05:00 until the 29 at 11:00 UTC


280500Z 2805/2911 VRB06KT 9000 BR SCT005 QNH2970INS
BECMG 2810/2811 27006KT 9999 NSW SCT010 QNH2974INS
BECMG 2819/2820 VRB06KT 8000 BR BKN007 OVC015 QNH2996INS TX09/2814Z TN04/2900Z



MET'MAP, your aeronautical weather chart ! - Copyright ORBIFLY December 2007 - Disclaimer

ORBIFLY MET'MAP TEAM :

Programming & Development : Alexandra Zaïnal
Original concept : Baudouin d'Aumeries
Technical & hardware support : Manuel Goepfert
Assistance : Marc-Olivier Méhu




SOURCES & CREDITS :

   NOAA